Time;durP1;ratioP1;P1;durP2;ratioP2;P2;SDS_P1;SDS_P2;PMS_P1;PMS_P2;Temp;Humidity;BMP_temperature;BMP_pressure;BME280_temperature;BME280_humidity;BME280_pressure;Samples;Min_cycle;Max_cycle;Signal;HPM_P1;HPM_P2
2021/07/12 00:01:14;;;;;;;17.77;8.40;;;19.90;99.90;;;;;;5103475;28;20529;-85
2021/07/12 00:03:41;;;;;;;18.40;9.30;;;19.90;99.90;;;;;;5103404;28;20470;-84
2021/07/12 00:06:07;;;;;;;18.40;10.20;;;19.90;99.90;;;;;;5083586;28;20459;-84
2021/07/12 00:08:34;;;;;;;18.97;10.23;;;19.90;99.90;;;;;;5075881;28;20435;-84
2021/07/12 00:11:01;;;;;;;18.27;9.20;;;19.90;99.90;;;;;;5082703;28;20458;-85
2021/07/12 00:13:28;;;;;;;19.30;10.27;;;19.90;99.90;;;;;;5082192;28;20466;-84
2021/07/12 00:15:56;;;;;;;24.80;10.63;;;19.90;99.90;;;;;;5081593;28;20453;-84
2021/07/12 00:18:23;;;;;;;19.00;10.30;;;19.90;99.90;;;;;;5080456;28;21088;-85
2021/07/12 00:20:50;;;;;;;22.53;11.03;;;19.90;99.90;;;;;;5083721;28;20457;-83
2021/07/12 00:23:17;;;;;;;18.90;9.43;;;19.90;99.90;;;;;;5080535;28;20513;-85
2021/07/12 00:25:44;;;;;;;18.13;9.13;;;19.80;99.90;;;;;;5105869;22;20576;-86
2021/07/12 00:28:10;;;;;;;18.50;9.73;;;19.80;99.90;;;;;;5093743;28;20434;-85
2021/07/12 00:30:37;;;;;;;19.93;9.50;;;19.80;99.90;;;;;;5093401;28;20446;-86
2021/07/12 00:33:06;;;;;;;18.17;9.80;;;19.80;99.90;;;;;;5100009;28;20438;-87
2021/07/12 00:35:34;;;;;;;20.00;11.20;;;19.80;99.90;;;;;;5110408;28;20945;-87
2021/07/12 00:38:02;;;;;;;21.03;9.77;;;19.80;99.90;;;;;;5111709;28;20489;-86
2021/07/12 00:40:31;;;;;;;17.97;8.83;;;19.70;99.90;;;;;;5110944;28;20445;-86
2021/07/12 00:42:59;;;;;;;23.23;11.10;;;19.70;99.90;;;;;;5111957;28;20453;-86
2021/07/12 00:45:29;;;;;;;18.70;9.37;;;19.60;99.90;;;;;;5112964;28;20477;-86
2021/07/12 00:47:57;;;;;;;18.67;9.17;;;19.60;99.90;;;;;;5095833;28;20446;-86
2021/07/12 00:50:28;;;;;;;18.50;10.17;;;19.50;99.90;;;;;;5092418;28;20445;-85
2021/07/12 00:52:56;;;;;;;21.93;9.73;;;19.50;99.90;;;;;;5107527;28;20485;-85
2021/07/12 00:55:28;;;;;;;20.43;10.40;;;19.40;99.90;;;;;;5092872;28;20488;-86
2021/07/12 00:57:55;;;;;;;19.87;10.00;;;19.40;99.90;;;;;;5092975;28;20545;-86
2021/07/12 01:00:24;;;;;;;19.67;10.43;;;19.30;99.90;;;;;;5095591;28;20453;-86
2021/07/12 01:02:52;;;;;;;19.60;10.50;;;19.30;99.90;;;;;;5113405;28;20445;-86
2021/07/12 01:05:21;;;;;;;20.20;10.47;;;19.20;99.90;;;;;;5112506;28;20447;-86
2021/07/12 01:07:49;;;;;;;18.63;10.27;;;19.20;99.90;;;;;;5112800;28;21035;-86
2021/07/12 01:10:17;;;;;;;19.07;10.50;;;19.10;99.90;;;;;;5112900;28;20455;-86
2021/07/12 01:12:55;;;;;;;18.80;9.17;;;19.10;99.90;;;;;;5114730;28;20536;-86
2021/07/12 01:15:27;;;;;;;19.10;10.30;;;19.10;99.90;;;;;;5102046;28;20457;-85
2021/07/12 01:18:02;;;;;;;17.93;10.13;;;19.10;99.90;;;;;;5093302;28;20507;-85
2021/07/12 01:21:20;;;;;;;19.77;10.57;;;19.10;99.90;;;;;;5093557;28;20584;-86
2021/07/12 01:24:12;;;;;;;20.37;10.17;;;19.00;99.90;;;;;;5095294;28;20544;-85
2021/07/12 01:27:18;;;;;;;18.77;9.43;;;18.90;99.90;;;;;;5095389;28;20484;-85
2021/07/12 01:30:05;;;;;;;19.13;9.90;;;18.90;99.90;;;;;;5108982;28;20520;-85
2021/07/12 01:32:45;;;;;;;16.37;9.10;;;18.80;99.90;;;;;;5115590;28;20432;-84
2021/07/12 01:35:19;;;;;;;16.80;9.53;;;18.80;99.90;;;;;;5114454;28;20448;-85
2021/07/12 01:37:56;;;;;;;18.70;9.50;;;18.80;99.90;;;;;;5116462;28;20546;-85
2021/07/12 01:40:29;;;;;;;20.30;11.13;;;18.70;99.90;;;;;;5115832;28;20459;-86
2021/07/12 01:43:03;;;;;;;19.07;11.27;;;18.60;99.90;;;;;;5108284;28;20503;-86
2021/07/12 01:45:40;;;;;;;19.97;10.40;;;18.60;99.90;;;;;;5099678;28;20471;-86
2021/07/12 01:48:14;;;;;;;18.23;10.10;;;18.60;99.90;;;;;;5115428;28;20964;-86
2021/07/12 01:50:51;;;;;;;18.07;10.00;;;18.60;99.90;;;;;;5115258;28;20462;-85
2021/07/12 01:53:24;;;;;;;17.30;9.97;;;18.50;99.90;;;;;;5115603;28;20467;-85
2021/07/12 01:55:57;;;;;;;20.23;11.03;;;18.50;99.90;;;;;;5117561;28;20476;-84
2021/07/12 01:58:30;;;;;;;17.17;10.23;;;18.40;99.90;;;;;;5096620;28;20996;-85
2021/07/12 02:01:00;;;;;;;18.43;10.10;;;18.40;99.90;;;;;;5097550;28;20449;-85
2021/07/12 02:03:31;;;;;;;17.60;9.80;;;18.40;99.90;;;;;;5098681;28;20439;-85
2021/07/12 02:06:00;;;;;;;18.00;10.37;;;18.30;99.90;;;;;;5096495;28;20854;-85
2021/07/12 02:08:28;;;;;;;19.13;10.57;;;18.30;99.90;;;;;;5096208;28;20442;-86
2021/07/12 02:10:57;;;;;;;17.03;8.70;;;18.20;99.90;;;;;;5104552;28;20455;-85
2021/07/12 02:13:24;;;;;;;17.53;10.10;;;18.30;99.90;;;;;;5116731;28;20459;-85
2021/07/12 02:15:53;;;;;;;21.40;11.00;;;18.30;99.90;;;;;;5116061;28;20472;-86
2021/07/12 02:18:25;;;;;;;17.20;9.60;;;18.30;99.90;;;;;;5115656;28;20571;-86
2021/07/12 02:20:55;;;;;;;22.80;11.33;;;18.20;99.90;;;;;;5116354;28;20449;-86
2021/07/12 02:23:22;;;;;;;18.57;10.87;;;18.30;99.90;;;;;;5115982;28;20536;-86
2021/07/12 02:25:50;;;;;;;17.53;8.87;;;18.20;99.90;;;;;;5100634;28;20482;-86
2021/07/12 02:28:17;;;;;;;18.07;9.40;;;18.20;99.90;;;;;;5094810;28;20456;-84
2021/07/12 02:30:45;;;;;;;19.53;10.30;;;18.20;99.90;;;;;;5093814;28;20926;-86
2021/07/12 02:33:13;;;;;;;19.47;10.37;;;18.20;99.90;;;;;;5094751;28;20450;-86
2021/07/12 02:35:41;;;;;;;18.00;9.57;;;18.10;99.90;;;;;;5091990;28;20454;-87
2021/07/12 02:38:11;;;;;;;16.27;9.70;;;18.10;99.90;;;;;;5094193;28;20485;-87
2021/07/12 02:40:38;;;;;;;18.87;9.50;;;18.10;99.90;;;;;;5113361;28;20437;-86
2021/07/12 02:43:06;;;;;;;17.73;10.50;;;18.00;99.90;;;;;;5113706;28;20453;-86
2021/07/12 02:45:33;;;;;;;20.60;9.80;;;18.00;99.90;;;;;;5113656;28;20839;-86
2021/07/12 02:48:00;;;;;;;16.83;8.70;;;18.00;99.90;;;;;;5113713;28;20528;-85
2021/07/12 02:50:28;;;;;;;16.80;9.40;;;18.00;99.90;;;;;;5115874;28;20520;-85
2021/07/12 02:53:01;;;;;;;17.37;9.33;;;18.00;99.90;;;;;;5109438;28;20460;-86
2021/07/12 02:55:29;;;;;;;17.10;9.87;;;18.00;99.90;;;;;;5114442;28;20466;-85
2021/07/12 02:57:56;;;;;;;17.87;10.13;;;17.90;99.90;;;;;;5104256;28;20474;-85
2021/07/12 03:00:23;;;;;;;15.97;8.90;;;17.90;99.90;;;;;;5112272;28;20488;-86
2021/07/12 03:02:50;;;;;;;17.83;9.90;;;17.90;99.90;;;;;;5114912;28;20494;-85
2021/07/12 03:05:17;;;;;;;18.30;9.37;;;17.90;99.90;;;;;;5110453;28;20537;-87
2021/07/12 03:07:47;;;;;;;16.10;8.67;;;17.80;99.90;;;;;;5112407;28;20449;-86
2021/07/12 03:10:17;;;;;;;20.23;10.23;;;17.90;99.90;;;;;;5099379;28;20541;-86
2021/07/12 03:12:49;;;;;;;15.90;9.13;;;17.80;99.90;;;;;;5097057;28;20548;-86
2021/07/12 03:15:18;;;;;;;19.50;9.60;;;17.80;99.90;;;;;;5094662;28;20442;-85
2021/07/12 03:17:48;;;;;;;16.00;9.13;;;17.80;99.90;;;;;;5094943;28;20450;-87
2021/07/12 03:20:18;;;;;;;16.97;9.47;;;17.80;99.90;;;;;;5096835;28;20466;-86
2021/07/12 03:22:49;;;;;;;16.43;9.17;;;17.80;99.90;;;;;;5097814;28;20457;-85
2021/07/12 03:25:20;;;;;;;17.47;9.40;;;17.80;99.90;;;;;;5115803;28;20445;-85
2021/07/12 03:27:50;;;;;;;15.60;8.87;;;17.70;99.90;;;;;;5113290;28;20461;-86
2021/07/12 03:30:18;;;;;;;17.90;9.17;;;17.70;99.90;;;;;;5112272;28;20833;-87
2021/07/12 03:32:47;;;;;;;18.43;9.10;;;17.70;99.90;;;;;;5115061;28;21051;-86
2021/07/12 03:35:16;;;;;;;19.80;10.00;;;17.70;99.90;;;;;;5114744;28;20453;-86
2021/07/12 03:37:43;;;;;;;15.93;8.80;;;17.70;99.90;;;;;;5115656;28;20476;-86
2021/07/12 03:40:11;;;;;;;17.43;9.50;;;17.70;99.90;;;;;;5103962;28;20450;-86
2021/07/12 03:42:39;;;;;;;17.10;9.10;;;17.70;99.90;;;;;;5094344;28;20556;-87
2021/07/12 03:45:09;;;;;;;16.03;9.30;;;17.70;99.90;;;;;;5093964;28;20445;-87
2021/07/12 03:47:38;;;;;;;17.07;9.63;;;17.60;99.90;;;;;;5093582;28;20428;-86
2021/07/12 03:50:13;;;;;;;16.70;9.23;;;17.60;99.90;;;;;;5091901;28;21020;-87
2021/07/12 03:52:46;;;;;;;18.20;10.23;;;17.60;99.90;;;;;;5092281;28;20445;-86
2021/07/12 03:55:15;;;;;;;18.83;9.60;;;17.60;99.90;;;;;;5092389;28;20446;-88
2021/07/12 03:57:42;;;;;;;17.70;10.00;;;17.60;99.90;;;;;;5093982;28;20445;-86
2021/07/12 04:00:12;;;;;;;19.23;9.30;;;17.70;99.90;;;;;;5092054;28;20458;-88
2021/07/12 04:02:40;;;;;;;19.40;10.23;;;17.70;99.90;;;;;;5093167;28;20454;-87
2021/07/12 04:05:09;;;;;;;17.17;9.80;;;17.70;99.90;;;;;;5092639;28;20461;-87
2021/07/12 04:07:36;;;;;;;21.93;10.00;;;17.70;99.90;;;;;;5092326;28;20517;-87
2021/07/12 04:10:05;;;;;;;16.60;9.83;;;17.70;99.90;;;;;;5091883;28;20445;-86
2021/07/12 04:12:32;;;;;;;17.50;10.50;;;17.80;99.90;;;;;;5100666;28;20544;-87
2021/07/12 04:14:59;;;;;;;17.80;9.77;;;17.80;99.90;;;;;;5113631;28;20448;-88
2021/07/12 04:17:27;;;;;;;22.73;10.17;;;17.80;99.90;;;;;;5112083;28;20460;-88
2021/07/12 04:19:56;;;;;;;18.03;11.10;;;17.80;99.90;;;;;;5112286;28;20495;-86
2021/07/12 04:22:24;;;;;;;17.43;9.20;;;17.90;99.90;;;;;;5102541;28;20450;-85
2021/07/12 04:24:51;;;;;;;18.23;10.80;;;17.90;99.90;;;;;;5094122;28;20477;-84
2021/07/12 04:27:18;;;;;;;15.93;9.47;;;17.90;99.90;;;;;;5095270;28;20481;-84
2021/07/12 04:29:45;;;;;;;17.00;9.50;;;17.90;99.90;;;;;;5105102;28;20445;-84
2021/07/12 04:32:12;;;;;;;18.90;10.00;;;18.00;99.90;;;;;;5108221;28;20533;-85
2021/07/12 04:34:41;;;;;;;20.33;10.27;;;18.00;99.90;;;;;;5094103;28;20490;-84
2021/07/12 04:37:08;;;;;;;17.60;10.23;;;18.10;99.90;;;;;;5091822;28;20997;-85
2021/07/12 04:39:35;;;;;;;18.30;10.30;;;18.10;99.90;;;;;;5092591;28;20478;-85
2021/07/12 04:42:02;;;;;;;17.33;10.50;;;18.10;99.90;;;;;;5094718;28;20829;-85
2021/07/12 04:44:29;;;;;;;18.53;10.43;;;18.20;99.90;;;;;;5088303;28;20451;-85
2021/07/12 04:46:57;;;;;;;19.10;10.80;;;18.20;99.90;;;;;;5101490;28;20986;-85
2021/07/12 04:49:24;;;;;;;18.80;11.27;;;18.30;99.90;;;;;;5092964;28;20554;-85
2021/07/12 04:51:52;;;;;;;18.23;10.27;;;18.30;99.90;;;;;;5095667;28;20448;-85
2021/07/12 04:54:20;;;;;;;20.50;10.70;;;18.30;99.90;;;;;;5097240;28;20456;-85
2021/07/12 04:56:47;;;;;;;18.13;10.83;;;18.40;99.90;;;;;;5100275;28;20833;-85
2021/07/12 04:59:16;;;;;;;17.90;9.60;;;18.50;99.90;;;;;;5091967;28;20902;-85
2021/07/12 05:01:43;;;;;;;18.27;10.80;;;18.50;99.90;;;;;;5104425;28;20511;-85
2021/07/12 05:04:11;;;;;;;17.23;10.20;;;18.60;99.90;;;;;;5121111;28;20455;-85
2021/07/12 05:06:38;;;;;;;19.80;12.43;;;18.70;99.90;;;;;;5111338;28;20481;-85
2021/07/12 05:09:06;;;;;;;21.77;11.93;;;18.70;99.90;;;;;;5113744;28;20453;-85
2021/07/12 05:11:34;;;;;;;19.90;11.33;;;18.80;99.90;;;;;;5098689;28;20445;-85
2021/07/12 05:14:01;;;;;;;18.13;9.57;;;18.80;99.90;;;;;;5100873;28;20446;-84
2021/07/12 05:16:28;;;;;;;18.07;10.83;;;18.90;99.90;;;;;;5098002;28;20481;-85
2021/07/12 05:18:57;;;;;;;19.53;11.27;;;19.00;99.90;;;;;;5103305;28;20487;-83
2021/07/12 05:21:24;;;;;;;18.67;10.07;;;19.00;99.90;;;;;;5119014;28;20453;-85
2021/07/12 05:23:51;;;;;;;18.80;11.03;;;19.10;99.90;;;;;;5119543;28;20460;-85
2021/07/12 05:26:20;;;;;;;18.27;10.47;;;19.20;99.90;;;;;;5119017;28;20495;-83
2021/07/12 05:28:48;;;;;;;19.27;10.90;;;19.20;99.90;;;;;;5117901;28;20468;-84
2021/07/12 05:31:16;;;;;;;17.77;10.00;;;19.30;99.90;;;;;;5118020;28;20904;-84
2021/07/12 05:33:44;;;;;;;18.10;10.60;;;19.40;99.90;;;;;;5116970;28;20545;-83
2021/07/12 05:36:11;;;;;;;18.67;10.40;;;19.40;99.90;;;;;;5121053;28;20514;-84
2021/07/12 05:38:38;;;;;;;18.13;10.23;;;19.50;99.90;;;;;;5116656;28;20487;-84
2021/07/12 05:41:05;;;;;;;19.10;10.63;;;19.50;99.90;;;;;;5117026;28;20457;-84
2021/07/12 05:43:33;;;;;;;19.77;9.90;;;19.60;99.90;;;;;;5104630;28;20900;-83
2021/07/12 05:46:00;;;;;;;19.13;10.47;;;19.70;99.90;;;;;;5096524;28;21018;-83
2021/07/12 05:48:27;;;;;;;18.53;10.50;;;19.70;99.90;;;;;;5098201;28;20454;-84
2021/07/12 05:51:11;;;;;;;17.60;10.53;;;19.70;99.90;;;;;;5097511;28;20539;-83
2021/07/12 05:53:38;;;;;;;17.53;9.63;;;19.80;99.90;;;;;;5097286;28;20529;-83
2021/07/12 05:56:08;;;;;;;18.10;9.40;;;19.90;99.90;;;;;;5098418;28;21011;-84
2021/07/12 05:58:36;;;;;;;18.70;9.83;;;20.00;99.90;;;;;;5099083;28;20450;-86
2021/07/12 06:01:03;;;;;;;17.93;9.90;;;20.00;99.90;;;;;;5099046;28;20969;-83
2021/07/12 06:03:30;;;;;;;20.17;10.93;;;20.10;99.90;;;;;;5098600;28;20843;-83
2021/07/12 06:05:57;;;;;;;18.00;8.80;;;20.10;99.90;;;;;;5101965;28;20530;-83
2021/07/12 06:08:35;;;;;;;20.47;9.77;;;20.20;99.90;;;;;;5097317;28;20525;-83
2021/07/12 06:11:02;;;;;;;17.90;9.20;;;20.30;99.90;;;;;;5095913;28;20448;-85
2021/07/12 06:13:29;;;;;;;19.70;9.60;;;20.30;99.90;;;;;;5097923;28;20461;-84
2021/07/12 06:15:57;;;;;;;21.77;10.93;;;20.40;99.90;;;;;;5098167;28;20494;-84
2021/07/12 06:18:26;;;;;;;19.17;8.70;;;20.40;99.90;;;;;;5096374;28;20536;-84
2021/07/12 06:20:53;;;;;;;21.60;10.50;;;20.50;99.90;;;;;;5099896;28;21003;-84
2021/07/12 06:23:20;;;;;;;20.17;8.97;;;20.60;99.90;;;;;;5099137;28;20453;-87
2021/07/12 06:25:47;;;;;;;21.80;9.03;;;20.60;99.90;;;;;;5114062;28;20490;-85
2021/07/12 06:28:14;;;;;;;22.30;7.90;;;20.60;99.90;;;;;;5114123;28;20462;-84
2021/07/12 06:30:41;;;;;;;23.30;8.43;;;20.70;99.90;;;;;;5113822;28;20468;-87
2021/07/12 06:33:11;;;;;;;25.37;9.43;;;20.80;99.90;;;;;;5131658;28;20449;-84
2021/07/12 06:35:38;;;;;;;23.07;8.43;;;20.90;99.90;;;;;;5114404;28;20466;-85
2021/07/12 06:38:05;;;;;;;19.60;7.63;;;21.00;99.90;;;;;;5103337;28;20500;-85
2021/07/12 06:40:32;;;;;;;20.90;7.73;;;21.10;99.90;;;;;;5101900;28;20577;-84
2021/07/12 06:42:59;;;;;;;21.40;7.37;;;21.10;99.90;;;;;;5096657;28;20461;-85
2021/07/12 06:45:26;;;;;;;24.00;8.30;;;21.20;99.90;;;;;;5089514;28;20519;-85
2021/07/12 06:47:52;;;;;;;22.80;7.70;;;21.30;99.90;;;;;;5100508;28;20465;-85
2021/07/12 06:50:22;;;;;;;23.80;8.07;;;21.30;99.90;;;;;;5098580;28;20513;-84
2021/07/12 06:52:49;;;;;;;24.63;8.03;;;21.40;99.90;;;;;;5100454;28;20878;-85
2021/07/12 06:55:16;;;;;;;23.07;8.00;;;21.40;99.90;;;;;;5098948;28;20456;-84
2021/07/12 06:57:46;;;;;;;22.17;7.40;;;21.50;99.90;;;;;;5101108;28;20460;-84
2021/07/12 07:00:13;;;;;;;23.87;7.60;;;21.60;99.90;;;;;;5101256;28;20822;-83
2021/07/12 07:02:40;;;;;;;23.27;9.00;;;21.60;99.90;;;;;;5102727;28;20452;-85
2021/07/12 07:05:08;;;;;;;20.70;6.97;;;21.60;99.90;;;;;;5104451;28;20999;-84
2021/07/12 07:07:37;;;;;;;30.10;9.27;;;21.70;99.90;;;;;;5100789;28;20469;-85
2021/07/12 07:10:05;;;;;;;28.00;8.10;;;21.80;99.90;;;;;;5104357;28;20454;-85
2021/07/12 07:12:32;;;;;;;27.03;7.50;;;21.90;99.90;;;;;;5096389;28;20518;-84
2021/07/12 07:14:59;;;;;;;25.90;7.70;;;21.90;99.90;;;;;;5101330;28;20520;-84
2021/07/12 07:17:26;;;;;;;27.93;7.97;;;21.90;99.90;;;;;;5100264;28;20478;-85
2021/07/12 07:19:54;;;;;;;26.27;7.00;;;21.90;99.90;;;;;;5099902;28;21095;-83
2021/07/12 07:22:21;;;;;;;23.50;6.67;;;21.80;99.90;;;;;;5102338;28;20431;-84
2021/07/12 07:24:49;;;;;;;21.57;6.13;;;21.90;99.90;;;;;;5109874;28;20484;-83
2021/07/12 07:27:17;;;;;;;21.80;6.80;;;22.00;99.90;;;;;;5118590;28;20540;-84
2021/07/12 07:29:44;;;;;;;20.50;5.50;;;22.10;99.90;;;;;;5105606;28;20454;-83
2021/07/12 07:32:11;;;;;;;27.97;6.97;;;22.20;99.90;;;;;;5096501;28;20465;-84
2021/07/12 07:34:38;;;;;;;48.47;21.07;;;22.20;99.90;;;;;;5097285;28;20472;-83
2021/07/12 07:37:05;;;;;;;90.97;83.13;;;22.30;99.90;;;;;;5101679;28;21211;-84
2021/07/12 07:39:32;;;;;;;36.70;9.13;;;22.20;99.90;;;;;;5095916;28;21023;-82
2021/07/12 07:42:00;;;;;;;32.80;10.43;;;22.40;99.90;;;;;;5110788;28;20445;-84
2021/07/12 07:44:27;;;;;;;30.90;7.23;;;22.40;99.90;;;;;;5098211;28;20538;-84
2021/07/12 07:46:55;;;;;;;28.33;8.40;;;22.50;99.90;;;;;;5101425;28;20474;-84
2021/07/12 07:49:22;;;;;;;36.10;7.17;;;22.50;99.90;;;;;;5103639;28;20449;-84
2021/07/12 07:51:49;;;;;;;55.27;34.23;;;22.50;99.90;;;;;;5100066;28;20474;-84
2021/07/12 07:54:16;;;;;;;78.10;70.57;;;22.70;99.90;;;;;;5099852;28;20441;-84
2021/07/12 07:56:43;;;;;;;52.57;28.03;;;22.80;99.90;;;;;;5096647;28;20989;-83
2021/07/12 07:59:14;;;;;;;43.60;11.30;;;22.80;99.90;;;;;;5093286;28;20488;-85
2021/07/12 08:01:41;;;;;;;51.27;32.90;;;23.00;99.90;;;;;;5086323;28;20454;-85
2021/07/12 08:04:08;;;;;;;34.43;10.27;;;23.20;99.90;;;;;;5092580;28;21048;-85
2021/07/12 08:06:34;;;;;;;35.90;17.57;;;23.30;99.90;;;;;;5081918;28;20545;-85
2021/07/12 08:09:01;;;;;;;96.43;88.77;;;23.50;99.90;;;;;;5093051;28;20457;-85
2021/07/12 08:11:28;;;;;;;31.97;8.67;;;23.70;99.90;;;;;;5099495;28;20508;-85
2021/07/12 08:13:55;;;;;;;74.87;68.00;;;23.90;99.90;;;;;;5090990;28;20541;-84
2021/07/12 08:16:23;;;;;;;128.23;118.87;;;24.10;99.90;;;;;;5088487;28;20476;-84
2021/07/12 08:18:51;;;;;;;40.47;16.37;;;24.30;99.90;;;;;;5090090;28;20618;-85
2021/07/12 08:21:18;;;;;;;54.03;41.03;;;24.40;99.90;;;;;;5096153;28;20508;-83
2021/07/12 08:23:45;;;;;;;337.17;319.20;;;24.50;99.90;;;;;;5095477;28;20481;-84
2021/07/12 08:26:13;;;;;;;346.33;326.23;;;24.70;99.90;;;;;;5095089;28;20561;-84
2021/07/12 08:28:42;;;;;;;78.60;70.90;;;24.70;99.90;;;;;;5099801;28;20536;-85
2021/07/12 08:31:10;;;;;;;518.00;490.20;;;24.70;99.90;;;;;;5100608;28;20517;-84
2021/07/12 08:33:38;;;;;;;950.87;883.40;;;24.60;99.90;;;;;;5099118;28;20450;-85
2021/07/12 08:36:06;;;;;;;1469.83;793.93;;;24.60;99.90;;;;;;5093147;28;21084;-84
2021/07/12 08:38:33;;;;;;;555.90;522.27;;;24.60;99.90;;;;;;5094361;28;20958;-83
2021/07/12 08:41:00;;;;;;;1999.90;999.90;;;24.70;99.90;;;;;;5097523;28;20861;-86
2021/07/12 08:43:34;;;;;;;1999.90;999.90;;;24.70;99.90;;;;;;5098281;28;20942;-85
2021/07/12 08:46:01;;;;;;;1999.90;999.90;;;24.80;99.90;;;;;;5092157;28;20472;-84
2021/07/12 08:48:29;;;;;;;1999.90;999.90;;;24.90;99.90;;;;;;5096270;28;20534;-84
2021/07/12 08:50:57;;;;;;;1999.90;999.90;;;25.00;99.90;;;;;;5098122;28;20946;-85
2021/07/12 08:53:25;;;;;;;1999.90;999.90;;;25.10;99.90;;;;;;5094270;28;20452;-87
2021/07/12 08:55:51;;;;;;;1999.90;999.90;;;25.00;99.90;;;;;;5094427;28;20497;-85
2021/07/12 08:58:23;;;;;;;1999.90;999.90;;;25.10;99.90;;;;;;5094870;28;20453;-83
2021/07/12 09:00:53;;;;;;;1999.90;999.90;;;25.30;99.90;;;;;;5101225;28;20506;-86
2021/07/12 09:03:31;;;;;;;1999.90;999.90;;;25.20;99.90;;;;;;5114655;28;20506;-85
2021/07/12 09:06:02;;;;;;;1999.90;999.90;;;25.60;99.90;;;;;;5094430;28;20472;-87
2021/07/12 09:08:37;;;;;;;1999.90;999.90;;;25.70;99.90;;;;;;5095525;28;20442;-86
2021/07/12 09:11:11;;;;;;;1999.90;999.90;;;25.90;99.90;;;;;;5095815;28;20448;-84
2021/07/12 09:13:47;;;;;;;100.87;74.33;;;26.00;99.90;;;;;;5075889;28;20537;-85
2021/07/12 09:16:41;;;;;;;1999.90;999.90;;;26.20;99.90;;;;;;5094331;28;20457;-86
2021/07/12 09:19:24;;;;;;;1999.90;999.90;;;26.20;99.90;;;;;;5092259;28;20446;-85
2021/07/12 09:21:55;;;;;;;1999.90;999.90;;;26.30;99.90;;;;;;5093515;28;20450;-85
2021/07/12 09:24:28;;;;;;;578.03;545.40;;;26.40;99.90;;;;;;5096145;28;20979;-85
2021/07/12 09:26:58;;;;;;;441.60;409.47;;;26.20;99.90;;;;;;5094397;28;20490;-85
2021/07/12 09:29:26;;;;;;;329.17;307.07;;;25.80;99.90;;;;;;5095431;28;20813;-87
2021/07/12 09:31:54;;;;;;;1999.90;999.90;;;26.00;99.90;;;;;;5099105;28;20453;-87
2021/07/12 09:34:22;;;;;;;1999.90;999.90;;;26.30;99.90;;;;;;5096338;28;20450;-85
2021/07/12 09:36:50;;;;;;;549.97;519.47;;;26.60;99.90;;;;;;5092813;28;20506;-86
2021/07/12 09:39:20;;;;;;;1408.77;736.47;;;26.80;99.90;;;;;;5100076;28;20533;-85
2021/07/12 09:41:48;;;;;;;1999.90;999.90;;;27.00;99.90;;;;;;5100706;28;20488;-85
2021/07/12 09:44:17;;;;;;;1999.90;999.90;;;26.90;99.90;;;;;;5101034;28;20503;-85
2021/07/12 09:46:45;;;;;;;1999.90;999.90;;;27.00;99.90;;;;;;5100679;28;20556;-85
2021/07/12 09:49:14;;;;;;;1999.90;999.90;;;27.20;99.90;;;;;;5094620;28;20458;-86
2021/07/12 09:51:41;;;;;;;838.60;492.50;;;27.30;99.90;;;;;;5090949;28;20454;-86
2021/07/12 09:54:20;;;;;;;1999.90;999.90;;;27.30;99.90;;;;;;5101762;28;20532;-86
2021/07/12 09:56:48;;;;;;;1999.90;999.90;;;27.20;99.90;;;;;;5091656;28;20473;-86
2021/07/12 09:59:15;;;;;;;628.20;594.50;;;27.10;99.90;;;;;;5091522;28;20970;-84
2021/07/12 10:01:50;;;;;;;1999.90;999.90;;;26.90;99.90;;;;;;5092933;28;20868;-86
2021/07/12 10:04:17;;;;;;;1999.90;999.90;;;26.70;99.90;;;;;;5097968;28;20440;-84
2021/07/12 10:06:46;;;;;;;1999.90;999.90;;;26.60;99.90;;;;;;5096509;28;21026;-85
2021/07/12 10:09:14;;;;;;;1387.37;715.07;;;26.60;99.90;;;;;;5095744;28;20452;-86
2021/07/12 10:11:44;;;;;;;280.63;260.10;;;26.90;99.90;;;;;;5097085;28;20468;-86
2021/07/12 10:14:12;;;;;;;690.53;651.37;;;27.00;99.90;;;;;;5095677;28;20464;-87
2021/07/12 10:16:39;;;;;;;589.10;556.40;;;27.20;99.90;;;;;;5096312;28;20494;-85
2021/07/12 10:19:06;;;;;;;443.03;416.53;;;27.60;99.90;;;;;;5096965;28;20453;-83
2021/07/12 10:21:43;;;;;;;440.13;414.80;;;27.90;99.90;;;;;;5098964;28;20482;-83
2021/07/12 10:24:10;;;;;;;32.80;4.87;;;28.30;99.90;;;;;;5097794;28;20425;-84
2021/07/12 10:26:56;;;;;;;244.13;230.63;;;28.30;99.90;;;;;;5098188;28;20478;-86
2021/07/12 10:29:27;;;;;;;1398.27;726.17;;;27.80;99.90;;;;;;5095532;28;20529;-86
2021/07/12 10:32:07;;;;;;;34.90;4.80;;;27.80;99.90;;;;;;5096361;28;20473;-85
2021/07/12 10:34:36;;;;;;;34.80;3.80;;;28.10;99.90;;;;;;5097323;28;20924;-89
2021/07/12 10:37:07;;;;;;;64.53;51.23;;;28.20;99.90;;;;;;5097839;28;20458;-87
2021/07/12 10:40:20;;;;;;;28.17;4.30;;;28.30;99.90;;;;;;5100987;28;20529;-87
2021/07/12 10:42:56;;;;;;;38.57;4.73;;;28.60;99.90;;;;;;5095196;28;20448;-88
2021/07/12 10:45:41;;;;;;;176.10;164.87;;;28.80;99.90;;;;;;5096744;28;20509;-87
2021/07/12 10:48:11;;;;;;;57.90;32.13;;;29.00;99.90;;;;;;5086944;28;20554;-88
2021/07/12 10:50:48;;;;;;;28.63;3.63;;;29.30;99.90;;;;;;5093681;28;20452;-87
2021/07/12 10:53:59;;;;;;;24.07;3.10;;;29.00;99.90;;;;;;5092552;28;20453;-88
2021/07/12 10:56:42;;;;;;;36.87;5.70;;;28.50;99.90;;;;;;5093328;28;20478;-88
2021/07/12 10:59:28;;;;;;;51.67;32.27;;;28.00;99.90;;;;;;5093179;28;20481;-88
2021/07/12 11:01:55;;;;;;;36.50;4.20;;;28.00;99.90;;;;;;5093461;28;20488;-85
2021/07/12 11:04:39;;;;;;;29.10;3.50;;;28.40;99.90;;;;;;5092805;28;20458;-88
2021/07/12 11:07:13;;;;;;;30.60;3.43;;;28.90;99.90;;;;;;5092735;28;20838;-86
2021/07/12 11:10:03;;;;;;;23.63;3.70;;;29.50;99.90;;;;;;5092634;28;20898;-86
2021/07/12 11:12:43;;;;;;;19.20;3.30;;;29.90;99.90;;;;;;5076855;28;20498;-86
2021/07/12 11:15:36;;;;;;;21.13;3.43;;;30.20;99.90;;;;;;5093116;28;20982;-86
2021/07/12 11:18:09;;;;;;;20.93;3.03;;;30.40;99.90;;;;;;5083644;28;20458;-86
2021/07/12 11:20:47;;;;;;;22.73;4.00;;;30.20;99.90;;;;;;5088819;28;20474;-86
2021/07/12 11:23:40;;;;;;;21.20;2.70;;;29.90;99.90;;;;;;5091690;28;20473;-87
2021/07/12 11:26:51;;;;;;;21.93;2.60;;;29.90;99.90;;;;;;5075448;28;20482;-87
2021/07/12 11:29:31;;;;;;;20.13;3.10;;;29.60;99.90;;;;;;5090061;28;20453;-87
2021/07/12 11:32:10;;;;;;;19.70;2.87;;;28.90;99.90;;;;;;5093282;28;20880;-86
2021/07/12 11:34:39;;;;;;;20.20;3.20;;;29.20;99.90;;;;;;5092534;28;20458;-86
2021/07/12 11:37:08;;;;;;;20.50;3.77;;;29.60;99.90;;;;;;5092654;28;20857;-86
2021/07/12 11:39:37;;;;;;;21.03;3.13;;;30.20;99.90;;;;;;5092417;28;20459;-86
2021/07/12 11:42:32;;;;;;;19.40;3.37;;;30.50;99.90;;;;;;5090480;28;20572;-86
2021/07/12 11:45:02;;;;;;;21.27;3.23;;;30.80;99.90;;;;;;5049189;28;21017;-86
2021/07/12 11:47:32;;;;;;;18.70;3.50;;;30.90;99.90;;;;;;5090745;28;20469;-89
2021/07/12 11:50:07;;;;;;;25.30;2.60;;;30.70;99.90;;;;;;5102581;28;20515;-86
2021/07/12 11:52:34;;;;;;;24.67;2.87;;;30.40;99.90;;;;;;5094657;28;20562;-86
2021/07/12 11:55:13;;;;;;;17.40;3.10;;;30.00;99.90;;;;;;5086172;28;20537;-86
2021/07/12 11:57:40;;;;;;;19.50;2.70;;;29.70;99.90;;;;;;5082491;28;20422;-87
2021/07/12 12:00:10;;;;;;;18.40;2.63;;;29.20;99.90;;;;;;5083118;28;20487;-87
2021/07/12 12:02:38;;;;;;;20.33;2.60;;;29.10;99.90;;;;;;5077940;28;20537;-87
2021/07/12 12:05:08;;;;;;;17.67;2.43;;;28.90;99.90;;;;;;5091826;28;21005;-88
2021/07/12 12:07:38;;;;;;;18.23;3.33;;;28.50;99.90;;;;;;5088033;28;20454;-87
2021/07/12 12:10:09;;;;;;;17.37;2.77;;;28.10;99.90;;;;;;5089681;28;20503;-87
2021/07/12 12:12:40;;;;;;;18.20;3.00;;;28.10;99.90;;;;;;5092515;28;20434;-85
2021/07/12 12:15:10;;;;;;;19.27;2.90;;;28.20;99.90;;;;;;5092493;28;20436;-86
2021/07/12 12:17:40;;;;;;;18.03;2.83;;;28.30;99.90;;;;;;5092050;28;20890;-87
2021/07/12 12:20:14;;;;;;;18.07;3.20;;;28.30;99.90;;;;;;5089750;28;20873;-86
2021/07/12 12:23:12;;;;;;;17.43;2.67;;;28.30;99.90;;;;;;5082119;28;20576;-89
2021/07/12 12:25:52;;;;;;;19.17;3.20;;;28.20;99.90;;;;;;5057296;28;20496;-87
2021/07/12 12:28:28;;;;;;;19.77;3.23;;;28.20;99.90;;;;;;5075624;28;20499;-86
2021/07/12 12:30:57;;;;;;;18.97;3.03;;;28.20;99.90;;;;;;5091520;28;20442;-86
2021/07/12 12:33:30;;;;;;;22.67;3.00;;;28.10;99.90;;;;;;5091001;28;20446;-86
2021/07/12 12:36:00;;;;;;;20.70;3.50;;;27.90;99.90;;;;;;5090496;28;20457;-88
2021/07/12 12:38:27;;;;;;;25.87;3.80;;;27.80;99.90;;;;;;5088386;28;20438;-87
2021/07/12 12:40:59;;;;;;;23.60;3.10;;;27.80;99.90;;;;;;5090880;28;20961;-87
2021/07/12 12:43:26;;;;;;;21.00;2.63;;;27.60;99.90;;;;;;5089299;28;20534;-88
2021/07/12 12:45:55;;;;;;;21.53;3.30;;;27.60;99.90;;;;;;5112756;22;20584;-85